<?xml version="1.0" encoding="UTF-8" standalone="no" ?>
<gpx xmlns:xsi="http://www.w3.org/2001/XMLSchema-instance" version="1.1" xmlns:gpxtpx="http://www.garmin.com/xmlschemas/TrackPointExtension/v1" xmlns="http://www.topografix.com/GPX/1/1" xmlns:rmc="urn:net:trekbuddy:1.0:nmea:rmc" creator="QLandkarteGT 1.7.0 http://www.qlandkarte.org/" xmlns:wptx1="http://www.garmin.com/xmlschemas/WaypointExtension/v1" xsi:schemaLocation="http://www.topografix.com/GPX/1/1 http://www.topografix.com/GPX/1/1/gpx.xsd http://www.garmin.com/xmlschemas/GpxExtensions/v3 http://www.garmin.com/xmlschemas/GpxExtensionsv3.xsd http://www.garmin.com/xmlschemas/TrackPointExtension/v1 http://www.garmin.com/xmlschemas/TrackPointExtensionv1.xsd http://www.garmin.com/xmlschemas/WaypointExtension/v1 http://www.garmin.com/xmlschemas/WaypointExtensionv1.xsd http://www.qlandkarte.org/xmlschemas/v1.1 http://www.qlandkarte.org/xmlschemas/v1.1/ql-extensions.xsd" xmlns:gpxx="http://www.garmin.com/xmlschemas/GpxExtensions/v3" xmlns:ql="http://www.qlandkarte.org/xmlschemas/v1.1">
 <metadata>
  <time>2013-04-26T14:28:21Z</time>
 </metadata>
 <wpt lon="12.61530018" lat="43.08200073">
  <ele>279.826</ele>
  <time>2013-04-26T14:26:42Z</time>
  <name>Complesso Benedettino di Santa Croce</name>
  <cmt></cmt>
  <sym></sym>
  <extensions>
   <ql:key>1366986402Complesso Benedettino di Santa Croce6</ql:key>
  </extensions>
 </wpt>
 <trk>
  <name>Valfabbrica - Assisi</name>
  <extensions>
   <gpxx:TrackExtension>
    <gpxx:DisplayColor>DarkBlue</gpxx:DisplayColor>
   </gpxx:TrackExtension>
   <ql:key>1366986224Valfabbrica - Assisi1</ql:key>
  </extensions>
  <trkseg>
   <trkpt lon="12.60107613" lat="43.15846634">
    <ele>287.87</ele>
    <time>1970-01-01T00:00:01.000Z</time>
   </trkpt>
   <trkpt lon="12.60087967" lat="43.15847778">
    <ele>286.595</ele>
    <time>1970-01-01T00:00:02.000Z</time>
   </trkpt>
   <trkpt lon="12.60074806" lat="43.15860367">
    <ele>286.77</ele>
    <time>1970-01-01T00:00:03.000Z</time>
   </trkpt>
   <trkpt lon="12.60074902" lat="43.15879822">
    <ele>288.369</ele>
    <time>1970-01-01T00:00:04.000Z</time>
   </trkpt>
   <trkpt lon="12.60091400" lat="43.15883255">
    <ele>289.239</ele>
    <time>1970-01-01T00:00:05.000Z</time>
   </trkpt>
   <trkpt lon="12.60114288" lat="43.15874481">
    <ele>289.593</ele>
    <time>1970-01-01T00:00:06.000Z</time>
   </trkpt>
   <trkpt lon="12.60121918" lat="43.15872574">
    <ele>289.825</ele>
    <time>1970-01-01T00:00:07.000Z</time>
   </trkpt>
   <trkpt lon="12.60125256" lat="43.15867996">
    <ele>289.786</ele>
    <time>1970-01-01T00:00:08.000Z</time>
   </trkpt>
   <trkpt lon="12.60116768" lat="43.15856552">
    <ele>288.869</ele>
    <time>1970-01-01T00:00:09.000Z</time>
   </trkpt>
   <trkpt lon="12.60130310" lat="43.15852356">
    <ele>289.485</ele>
    <time>1970-01-01T00:00:10.000Z</time>
   </trkpt>
   <trkpt lon="12.60139275" lat="43.15829849">
    <ele>290.483</ele>
    <time>1970-01-01T00:00:11.000Z</time>
   </trkpt>
   <trkpt lon="12.60150814" lat="43.15805054">
    <ele>292.172</ele>
    <time>1970-01-01T00:00:12.000Z</time>
   </trkpt>
   <trkpt lon="12.60177422" lat="43.15793991">
    <ele>294.617</ele>
    <time>1970-01-01T00:00:13.000Z</time>
   </trkpt>
   <trkpt lon="12.60180283" lat="43.15776825">
    <ele>295.501</ele>
    <time>1970-01-01T00:00:14.000Z</time>
   </trkpt>
   <trkpt lon="12.60180473" lat="43.15768433">
    <ele>295.235</ele>
    <time>1970-01-01T00:00:15.000Z</time>
   </trkpt>
   <trkpt lon="12.60189915" lat="43.15757370">
    <ele>295.493</ele>
    <time>1970-01-01T00:00:16.000Z</time>
   </trkpt>
   <trkpt lon="12.60204411" lat="43.15755463">
    <ele>296.68</ele>
    <time>1970-01-01T00:00:17.000Z</time>
   </trkpt>
   <trkpt lon="12.60216236" lat="43.15752411">
    <ele>297.595</ele>
    <time>1970-01-01T00:00:18.000Z</time>
   </trkpt>
   <trkpt lon="12.60227776" lat="43.15745544">
    <ele>298.358</ele>
    <time>1970-01-01T00:00:19.000Z</time>
   </trkpt>
   <trkpt lon="12.60231590" lat="43.15733337">
    <ele>298.256</ele>
    <time>1970-01-01T00:00:20.000Z</time>
   </trkpt>
   <trkpt lon="12.60249329" lat="43.15702820">
    <ele>297.683</ele>
    <time>1970-01-01T00:00:21.000Z</time>
   </trkpt>
   <trkpt lon="12.60266972" lat="43.15677643">
    <ele>293.555</ele>
    <time>1970-01-01T00:00:22.000Z</time>
   </trkpt>
   <trkpt lon="12.60294819" lat="43.15653610">
    <ele>289.94</ele>
    <time>1970-01-01T00:00:23.000Z</time>
   </trkpt>
   <trkpt lon="12.60334396" lat="43.15637970">
    <ele>288.548</ele>
    <time>1970-01-01T00:00:24.000Z</time>
   </trkpt>
   <trkpt lon="12.60392666" lat="43.15604782">
    <ele>284.623</ele>
    <time>1970-01-01T00:00:25.000Z</time>
   </trkpt>
   <trkpt lon="12.60422516" lat="43.15591812">
    <ele>283.598</ele>
    <time>1970-01-01T00:00:26.000Z</time>
   </trkpt>
   <trkpt lon="12.60454655" lat="43.15576553">
    <ele>281.069</ele>
    <time>1970-01-01T00:00:27.000Z</time>
   </trkpt>
   <trkpt lon="12.60481071" lat="43.15550995">
    <ele>276.956</ele>
    <time>1970-01-01T00:00:28.000Z</time>
   </trkpt>
   <trkpt lon="12.60514069" lat="43.15522766">
    <ele>274.944</ele>
    <time>1970-01-01T00:00:29.000Z</time>
   </trkpt>
   <trkpt lon="12.60616302" lat="43.15451050">
    <ele>278.028</ele>
    <time>1970-01-01T00:00:30.000Z</time>
   </trkpt>
   <trkpt lon="12.60620022" lat="43.15417099">
    <ele>278.647</ele>
    <time>1970-01-01T00:00:31.000Z</time>
   </trkpt>
   <trkpt lon="12.60643196" lat="43.15393829">
    <ele>281.058</ele>
    <time>1970-01-01T00:00:32.000Z</time>
   </trkpt>
   <trkpt lon="12.60713577" lat="43.15356827">
    <ele>285.131</ele>
    <time>1970-01-01T00:00:33.000Z</time>
   </trkpt>
   <trkpt lon="12.60851955" lat="43.15265656">
    <ele>287.058</ele>
    <time>1970-01-01T00:00:34.000Z</time>
   </trkpt>
   <trkpt lon="12.60941792" lat="43.15193939">
    <ele>289.813</ele>
    <time>1970-01-01T00:00:35.000Z</time>
   </trkpt>
   <trkpt lon="12.60975075" lat="43.15174866">
    <ele>291.752</ele>
    <time>1970-01-01T00:00:36.000Z</time>
   </trkpt>
   <trkpt lon="12.61005020" lat="43.15150833">
    <ele>293.417</ele>
    <time>1970-01-01T00:00:37.000Z</time>
   </trkpt>
   <trkpt lon="12.61024570" lat="43.15128708">
    <ele>293.857</ele>
    <time>1970-01-01T00:00:38.000Z</time>
   </trkpt>
   <trkpt lon="12.61051178" lat="43.15107727">
    <ele>294.924</ele>
    <time>1970-01-01T00:00:39.000Z</time>
   </trkpt>
   <trkpt lon="12.61083508" lat="43.15092087">
    <ele>297.559</ele>
    <time>1970-01-01T00:00:40.000Z</time>
   </trkpt>
   <trkpt lon="12.61104393" lat="43.15069962">
    <ele>301.334</ele>
    <time>1970-01-01T00:00:41.000Z</time>
   </trkpt>
   <trkpt lon="12.61091995" lat="43.15043259">
    <ele>300.074</ele>
    <time>1970-01-01T00:00:42.000Z</time>
   </trkpt>
   <trkpt lon="12.61124229" lat="43.14966202">
    <ele>301.424</ele>
    <time>1970-01-01T00:00:43.000Z</time>
   </trkpt>
   <trkpt lon="12.61180115" lat="43.14887619">
    <ele>300.213</ele>
    <time>1970-01-01T00:00:44.000Z</time>
   </trkpt>
   <trkpt lon="12.61225319" lat="43.14848709">
    <ele>300.309</ele>
    <time>1970-01-01T00:00:45.000Z</time>
   </trkpt>
   <trkpt lon="12.61316395" lat="43.14773560">
    <ele>299.914</ele>
    <time>1970-01-01T00:00:46.000Z</time>
   </trkpt>
   <trkpt lon="12.61348343" lat="43.14743423">
    <ele>299.558</ele>
    <time>1970-01-01T00:00:47.000Z</time>
   </trkpt>
   <trkpt lon="12.61392975" lat="43.14701080">
    <ele>300.231</ele>
    <time>1970-01-01T00:00:48.000Z</time>
   </trkpt>
   <trkpt lon="12.61448669" lat="43.14654922">
    <ele>302.016</ele>
    <time>1970-01-01T00:00:49.000Z</time>
   </trkpt>
   <trkpt lon="12.61468220" lat="43.14633179">
    <ele>306.298</ele>
    <time>1970-01-01T00:00:50.000Z</time>
   </trkpt>
   <trkpt lon="12.61486340" lat="43.14604950">
    <ele>311.224</ele>
    <time>1970-01-01T00:00:51.000Z</time>
   </trkpt>
   <trkpt lon="12.61406898" lat="43.14562225">
    <ele>316.257</ele>
    <time>1970-01-01T00:00:52.000Z</time>
   </trkpt>
   <trkpt lon="12.61382961" lat="43.14537430">
    <ele>318.716</ele>
    <time>1970-01-01T00:00:53.000Z</time>
   </trkpt>
   <trkpt lon="12.61308956" lat="43.14505386">
    <ele>314.607</ele>
    <time>1970-01-01T00:00:54.000Z</time>
   </trkpt>
   <trkpt lon="12.61299038" lat="43.14505005">
    <ele>313.31</ele>
    <time>1970-01-01T00:00:55.000Z</time>
   </trkpt>
   <trkpt lon="12.61272717" lat="43.14501190">
    <ele>310.055</ele>
    <time>1970-01-01T00:00:56.000Z</time>
   </trkpt>
   <trkpt lon="12.61260796" lat="43.14490128">
    <ele>309.233</ele>
    <time>1970-01-01T00:00:57.000Z</time>
   </trkpt>
   <trkpt lon="12.61258602" lat="43.14461517">
    <ele>311.051</ele>
    <time>1970-01-01T00:00:58.000Z</time>
   </trkpt>
   <trkpt lon="12.61247158" lat="43.14435577">
    <ele>311.103</ele>
    <time>1970-01-01T00:00:59.000Z</time>
   </trkpt>
   <trkpt lon="12.61224461" lat="43.14414597">
    <ele>311.694</ele>
    <time>1970-01-01T00:01:00.000Z</time>
   </trkpt>
   <trkpt lon="12.61237526" lat="43.14397812">
    <ele>312.465</ele>
    <time>1970-01-01T00:01:01.000Z</time>
   </trkpt>
   <trkpt lon="12.61238670" lat="43.14392853">
    <ele>313.055</ele>
    <time>1970-01-01T00:01:02.000Z</time>
   </trkpt>
   <trkpt lon="12.61241245" lat="43.14387131">
    <ele>313.95</ele>
    <time>1970-01-01T00:01:03.000Z</time>
   </trkpt>
   <trkpt lon="12.61246872" lat="43.14372253">
    <ele>316.095</ele>
    <time>1970-01-01T00:01:04.000Z</time>
   </trkpt>
   <trkpt lon="12.61222553" lat="43.14326859">
    <ele>317.9</ele>
    <time>1970-01-01T00:01:05.000Z</time>
   </trkpt>
   <trkpt lon="12.61229134" lat="43.14294815">
    <ele>320.308</ele>
    <time>1970-01-01T00:01:06.000Z</time>
   </trkpt>
   <trkpt lon="12.61217213" lat="43.14258194">
    <ele>321.839</ele>
    <time>1970-01-01T00:01:07.000Z</time>
   </trkpt>
   <trkpt lon="12.61227512" lat="43.14216232">
    <ele>328.34</ele>
    <time>1970-01-01T00:01:08.000Z</time>
   </trkpt>
   <trkpt lon="12.61252403" lat="43.14193726">
    <ele>341.764</ele>
    <time>1970-01-01T00:01:09.000Z</time>
   </trkpt>
   <trkpt lon="12.61254215" lat="43.14168167">
    <ele>350.523</ele>
    <time>1970-01-01T00:01:10.000Z</time>
   </trkpt>
   <trkpt lon="12.61230946" lat="43.14144516">
    <ele>350.827</ele>
    <time>1970-01-01T00:01:11.000Z</time>
   </trkpt>
   <trkpt lon="12.61157322" lat="43.14115143">
    <ele>339.681</ele>
    <time>1970-01-01T00:01:12.000Z</time>
   </trkpt>
   <trkpt lon="12.61125946" lat="43.14107132">
    <ele>333.597</ele>
    <time>1970-01-01T00:01:13.000Z</time>
   </trkpt>
   <trkpt lon="12.61097431" lat="43.14088058">
    <ele>333.67</ele>
    <time>1970-01-01T00:01:14.000Z</time>
   </trkpt>
   <trkpt lon="12.61119366" lat="43.14037704">
    <ele>337.008</ele>
    <time>1970-01-01T00:01:15.000Z</time>
   </trkpt>
   <trkpt lon="12.61106682" lat="43.14017868">
    <ele>336.512</ele>
    <time>1970-01-01T00:01:16.000Z</time>
   </trkpt>
   <trkpt lon="12.61093616" lat="43.13999176">
    <ele>336.671</ele>
    <time>1970-01-01T00:01:17.000Z</time>
   </trkpt>
   <trkpt lon="12.61098099" lat="43.13969803">
    <ele>337.61</ele>
    <time>1970-01-01T00:01:18.000Z</time>
   </trkpt>
   <trkpt lon="12.61110401" lat="43.13958740">
    <ele>337.102</ele>
    <time>1970-01-01T00:01:19.000Z</time>
   </trkpt>
   <trkpt lon="12.61145782" lat="43.13925552">
    <ele>344.435</ele>
    <time>1970-01-01T00:01:20.000Z</time>
   </trkpt>
   <trkpt lon="12.61176682" lat="43.13899612">
    <ele>349.671</ele>
    <time>1970-01-01T00:01:21.000Z</time>
   </trkpt>
   <trkpt lon="12.61194992" lat="43.13879013">
    <ele>351.524</ele>
    <time>1970-01-01T00:01:22.000Z</time>
   </trkpt>
   <trkpt lon="12.61180973" lat="43.13847733">
    <ele>352.242</ele>
    <time>1970-01-01T00:01:23.000Z</time>
   </trkpt>
   <trkpt lon="12.61225986" lat="43.13821793">
    <ele>358.345</ele>
    <time>1970-01-01T00:01:24.000Z</time>
   </trkpt>
   <trkpt lon="12.61236095" lat="43.13778687">
    <ele>361.919</ele>
    <time>1970-01-01T00:01:25.000Z</time>
   </trkpt>
   <trkpt lon="12.61238575" lat="43.13754272">
    <ele>363.299</ele>
    <time>1970-01-01T00:01:26.000Z</time>
   </trkpt>
   <trkpt lon="12.61247063" lat="43.13736725">
    <ele>365.42</ele>
    <time>1970-01-01T00:01:27.000Z</time>
   </trkpt>
   <trkpt lon="12.61270618" lat="43.13711548">
    <ele>371.192</ele>
    <time>1970-01-01T00:01:28.000Z</time>
   </trkpt>
   <trkpt lon="12.61250877" lat="43.13670731">
    <ele>373.293</ele>
    <time>1970-01-01T00:01:29.000Z</time>
   </trkpt>
   <trkpt lon="12.61250114" lat="43.13641739">
    <ele>376.983</ele>
    <time>1970-01-01T00:01:30.000Z</time>
   </trkpt>
   <trkpt lon="12.61232662" lat="43.13618469">
    <ele>378.136</ele>
    <time>1970-01-01T00:01:31.000Z</time>
   </trkpt>
   <trkpt lon="12.61229038" lat="43.13597870">
    <ele>380.664</ele>
    <time>1970-01-01T00:01:32.000Z</time>
   </trkpt>
   <trkpt lon="12.61233521" lat="43.13579178">
    <ele>383.723</ele>
    <time>1970-01-01T00:01:33.000Z</time>
   </trkpt>
   <trkpt lon="12.61240768" lat="43.13566208">
    <ele>385.82</ele>
    <time>1970-01-01T00:01:34.000Z</time>
   </trkpt>
   <trkpt lon="12.61253357" lat="43.13548279">
    <ele>388.678</ele>
    <time>1970-01-01T00:01:35.000Z</time>
   </trkpt>
   <trkpt lon="12.61266136" lat="43.13527298">
    <ele>391.472</ele>
    <time>1970-01-01T00:01:36.000Z</time>
   </trkpt>
   <trkpt lon="12.61267662" lat="43.13508224">
    <ele>393.16</ele>
    <time>1970-01-01T00:01:37.000Z</time>
   </trkpt>
   <trkpt lon="12.61257362" lat="43.13494492">
    <ele>393.128</ele>
    <time>1970-01-01T00:01:38.000Z</time>
   </trkpt>
   <trkpt lon="12.61261940" lat="43.13475418">
    <ele>393.836</ele>
    <time>1970-01-01T00:01:39.000Z</time>
   </trkpt>
   <trkpt lon="12.61270714" lat="43.13442993">
    <ele>394.773</ele>
    <time>1970-01-01T00:01:40.000Z</time>
   </trkpt>
   <trkpt lon="12.61256123" lat="43.13424301">
    <ele>395.036</ele>
    <time>1970-01-01T00:01:41.000Z</time>
   </trkpt>
   <trkpt lon="12.61259079" lat="43.13373947">
    <ele>396.09</ele>
    <time>1970-01-01T00:01:42.000Z</time>
   </trkpt>
   <trkpt lon="12.61250114" lat="43.13366318">
    <ele>396.414</ele>
    <time>1970-01-01T00:01:43.000Z</time>
   </trkpt>
   <trkpt lon="12.61244202" lat="43.13354111">
    <ele>397.721</ele>
    <time>1970-01-01T00:01:44.000Z</time>
   </trkpt>
   <trkpt lon="12.61240387" lat="43.13340378">
    <ele>399.454</ele>
    <time>1970-01-01T00:01:45.000Z</time>
   </trkpt>
   <trkpt lon="12.61237907" lat="43.13329315">
    <ele>400.846</ele>
    <time>1970-01-01T00:01:46.000Z</time>
   </trkpt>
   <trkpt lon="12.61245441" lat="43.13314438">
    <ele>402.323</ele>
    <time>1970-01-01T00:01:47.000Z</time>
   </trkpt>
   <trkpt lon="12.61241531" lat="43.13305283">
    <ele>403.544</ele>
    <time>1970-01-01T00:01:48.000Z</time>
   </trkpt>
   <trkpt lon="12.61242580" lat="43.13293839">
    <ele>404.834</ele>
    <time>1970-01-01T00:01:49.000Z</time>
   </trkpt>
   <trkpt lon="12.61250305" lat="43.13240433">
    <ele>416.314</ele>
    <time>1970-01-01T00:01:50.000Z</time>
   </trkpt>
   <trkpt lon="12.61237526" lat="43.13235855">
    <ele>418.259</ele>
    <time>1970-01-01T00:01:51.000Z</time>
   </trkpt>
   <trkpt lon="12.61229134" lat="43.13230515">
    <ele>420.11</ele>
    <time>1970-01-01T00:01:52.000Z</time>
   </trkpt>
   <trkpt lon="12.61218834" lat="43.13210297">
    <ele>428.214</ele>
    <time>1970-01-01T00:01:53.000Z</time>
   </trkpt>
   <trkpt lon="12.61223316" lat="43.13201141">
    <ele>432.386</ele>
    <time>1970-01-01T00:01:54.000Z</time>
   </trkpt>
   <trkpt lon="12.61232471" lat="43.13180542">
    <ele>442.061</ele>
    <time>1970-01-01T00:01:55.000Z</time>
   </trkpt>
   <trkpt lon="12.61172867" lat="43.13172913">
    <ele>449.045</ele>
    <time>1970-01-01T00:01:56.000Z</time>
   </trkpt>
   <trkpt lon="12.61154747" lat="43.13168335">
    <ele>451.334</ele>
    <time>1970-01-01T00:01:57.000Z</time>
   </trkpt>
   <trkpt lon="12.61144638" lat="43.13162994">
    <ele>453.278</ele>
    <time>1970-01-01T00:01:58.000Z</time>
   </trkpt>
   <trkpt lon="12.61132431" lat="43.13157272">
    <ele>455.024</ele>
    <time>1970-01-01T00:01:59.000Z</time>
   </trkpt>
   <trkpt lon="12.61126328" lat="43.13136292">
    <ele>460.894</ele>
    <time>1970-01-01T00:02:00.000Z</time>
   </trkpt>
   <trkpt lon="12.61128998" lat="43.13125992">
    <ele>463.752</ele>
    <time>1970-01-01T00:02:01.000Z</time>
   </trkpt>
   <trkpt lon="12.61135101" lat="43.13118744">
    <ele>466.048</ele>
    <time>1970-01-01T00:02:02.000Z</time>
   </trkpt>
   <trkpt lon="12.61143017" lat="43.13099670">
    <ele>471.488</ele>
    <time>1970-01-01T00:02:03.000Z</time>
   </trkpt>
   <trkpt lon="12.61144161" lat="43.13087845">
    <ele>474.594</ele>
    <time>1970-01-01T00:02:04.000Z</time>
   </trkpt>
   <trkpt lon="12.61136818" lat="43.13074875">
    <ele>476.642</ele>
    <time>1970-01-01T00:02:05.000Z</time>
   </trkpt>
   <trkpt lon="12.61122513" lat="43.13052368">
    <ele>477.226</ele>
    <time>1970-01-01T00:02:06.000Z</time>
   </trkpt>
   <trkpt lon="12.61127853" lat="43.13024521">
    <ele>478.916</ele>
    <time>1970-01-01T00:02:07.000Z</time>
   </trkpt>
   <trkpt lon="12.61137772" lat="43.12991714">
    <ele>479.109</ele>
    <time>1970-01-01T00:02:08.000Z</time>
   </trkpt>
   <trkpt lon="12.61139011" lat="43.12973785">
    <ele>478.45</ele>
    <time>1970-01-01T00:02:09.000Z</time>
   </trkpt>
   <trkpt lon="12.61132526" lat="43.12940979">
    <ele>478.22</ele>
    <time>1970-01-01T00:02:10.000Z</time>
   </trkpt>
   <trkpt lon="12.61130142" lat="43.12924576">
    <ele>478.649</ele>
    <time>1970-01-01T00:02:11.000Z</time>
   </trkpt>
   <trkpt lon="12.61126995" lat="43.12894821">
    <ele>479.872</ele>
    <time>1970-01-01T00:02:12.000Z</time>
   </trkpt>
   <trkpt lon="12.61126614" lat="43.12892914">
    <ele>479.998</ele>
    <time>1970-01-01T00:02:13.000Z</time>
   </trkpt>
   <trkpt lon="12.61116123" lat="43.12862396">
    <ele>483.525</ele>
    <time>1970-01-01T00:02:14.000Z</time>
   </trkpt>
   <trkpt lon="12.61110306" lat="43.12834167">
    <ele>487.195</ele>
    <time>1970-01-01T00:02:15.000Z</time>
   </trkpt>
   <trkpt lon="12.61111259" lat="43.12801361">
    <ele>489.296</ele>
    <time>1970-01-01T00:02:16.000Z</time>
   </trkpt>
   <trkpt lon="12.61103344" lat="43.12783432">
    <ele>492.168</ele>
    <time>1970-01-01T00:02:17.000Z</time>
   </trkpt>
   <trkpt lon="12.61091614" lat="43.12776566">
    <ele>495.095</ele>
    <time>1970-01-01T00:02:18.000Z</time>
   </trkpt>
   <trkpt lon="12.61069679" lat="43.12772751">
    <ele>500.315</ele>
    <time>1970-01-01T00:02:19.000Z</time>
   </trkpt>
   <trkpt lon="12.61046028" lat="43.12758636">
    <ele>505.033</ele>
    <time>1970-01-01T00:02:20.000Z</time>
   </trkpt>
   <trkpt lon="12.61027527" lat="43.12744141">
    <ele>507.458</ele>
    <time>1970-01-01T00:02:21.000Z</time>
   </trkpt>
   <trkpt lon="12.61013126" lat="43.12738037">
    <ele>509.435</ele>
    <time>1970-01-01T00:02:22.000Z</time>
   </trkpt>
   <trkpt lon="12.60975838" lat="43.12732697">
    <ele>515.155</ele>
    <time>1970-01-01T00:02:23.000Z</time>
   </trkpt>
   <trkpt lon="12.60940361" lat="43.12708282">
    <ele>519.257</ele>
    <time>1970-01-01T00:02:24.000Z</time>
   </trkpt>
   <trkpt lon="12.60911274" lat="43.12688065">
    <ele>525.136</ele>
    <time>1970-01-01T00:02:25.000Z</time>
   </trkpt>
   <trkpt lon="12.60897541" lat="43.12669373">
    <ele>527.2</ele>
    <time>1970-01-01T00:02:26.000Z</time>
   </trkpt>
   <trkpt lon="12.60878372" lat="43.12656021">
    <ele>530.766</ele>
    <time>1970-01-01T00:02:27.000Z</time>
   </trkpt>
   <trkpt lon="12.60857677" lat="43.12581635">
    <ele>533.627</ele>
    <time>1970-01-01T00:02:28.000Z</time>
   </trkpt>
   <trkpt lon="12.60826969" lat="43.12574387">
    <ele>537.36</ele>
    <time>1970-01-01T00:02:29.000Z</time>
   </trkpt>
   <trkpt lon="12.60800362" lat="43.12565231">
    <ele>539.631</ele>
    <time>1970-01-01T00:02:30.000Z</time>
   </trkpt>
   <trkpt lon="12.60797405" lat="43.12548828">
    <ele>538.668</ele>
    <time>1970-01-01T00:02:31.000Z</time>
   </trkpt>
   <trkpt lon="12.60792542" lat="43.12536621">
    <ele>538.124</ele>
    <time>1970-01-01T00:02:32.000Z</time>
   </trkpt>
   <trkpt lon="12.60795021" lat="43.12514114">
    <ele>536.216</ele>
    <time>1970-01-01T00:02:33.000Z</time>
   </trkpt>
   <trkpt lon="12.60846710" lat="43.12483215">
    <ele>529.497</ele>
    <time>1970-01-01T00:02:34.000Z</time>
   </trkpt>
   <trkpt lon="12.60869026" lat="43.12468719">
    <ele>526.708</ele>
    <time>1970-01-01T00:02:35.000Z</time>
   </trkpt>
   <trkpt lon="12.60911179" lat="43.12467575">
    <ele>524.653</ele>
    <time>1970-01-01T00:02:36.000Z</time>
   </trkpt>
   <trkpt lon="12.60932255" lat="43.12460327">
    <ele>523.274</ele>
    <time>1970-01-01T00:02:37.000Z</time>
   </trkpt>
   <trkpt lon="12.60963440" lat="43.12443542">
    <ele>522.519</ele>
    <time>1970-01-01T00:02:38.000Z</time>
   </trkpt>
   <trkpt lon="12.60998344" lat="43.12430191">
    <ele>522.622</ele>
    <time>1970-01-01T00:02:39.000Z</time>
   </trkpt>
   <trkpt lon="12.61023808" lat="43.12429047">
    <ele>523.454</ele>
    <time>1970-01-01T00:02:40.000Z</time>
   </trkpt>
   <trkpt lon="12.61098576" lat="43.12399292">
    <ele>524.779</ele>
    <time>1970-01-01T00:02:41.000Z</time>
   </trkpt>
   <trkpt lon="12.61185169" lat="43.12386703">
    <ele>537.586</ele>
    <time>1970-01-01T00:02:42.000Z</time>
   </trkpt>
   <trkpt lon="12.61217403" lat="43.12374878">
    <ele>544.011</ele>
    <time>1970-01-01T00:02:43.000Z</time>
   </trkpt>
   <trkpt lon="12.61241531" lat="43.12357330">
    <ele>549.532</ele>
    <time>1970-01-01T00:02:44.000Z</time>
   </trkpt>
   <trkpt lon="12.61251640" lat="43.12316513">
    <ele>543.595</ele>
    <time>1970-01-01T00:02:45.000Z</time>
   </trkpt>
   <trkpt lon="12.61262417" lat="43.12298203">
    <ele>540.904</ele>
    <time>1970-01-01T00:02:46.000Z</time>
   </trkpt>
   <trkpt lon="12.61282921" lat="43.12284851">
    <ele>539.78</ele>
    <time>1970-01-01T00:02:47.000Z</time>
   </trkpt>
   <trkpt lon="12.61318111" lat="43.12274933">
    <ele>540.364</ele>
    <time>1970-01-01T00:02:48.000Z</time>
   </trkpt>
   <trkpt lon="12.61393166" lat="43.12274933">
    <ele>546.327</ele>
    <time>1970-01-01T00:02:49.000Z</time>
   </trkpt>
   <trkpt lon="12.61462879" lat="43.12250519">
    <ele>546.013</ele>
    <time>1970-01-01T00:02:50.000Z</time>
   </trkpt>
   <trkpt lon="12.61505604" lat="43.12254333">
    <ele>549.787</ele>
    <time>1970-01-01T00:02:51.000Z</time>
   </trkpt>
   <trkpt lon="12.61549568" lat="43.12258911">
    <ele>553.328</ele>
    <time>1970-01-01T00:02:52.000Z</time>
   </trkpt>
   <trkpt lon="12.61629868" lat="43.12244415">
    <ele>562.019</ele>
    <time>1970-01-01T00:02:53.000Z</time>
   </trkpt>
   <trkpt lon="12.61637306" lat="43.12222290">
    <ele>562.974</ele>
    <time>1970-01-01T00:02:54.000Z</time>
   </trkpt>
   <trkpt lon="12.61620808" lat="43.12167358">
    <ele>561.536</ele>
    <time>1970-01-01T00:02:55.000Z</time>
   </trkpt>
   <trkpt lon="12.61583519" lat="43.12025452">
    <ele>551.98</ele>
    <time>1970-01-01T00:02:56.000Z</time>
   </trkpt>
   <trkpt lon="12.61590385" lat="43.11994934">
    <ele>550.297</ele>
    <time>1970-01-01T00:02:57.000Z</time>
   </trkpt>
   <trkpt lon="12.61645317" lat="43.11949158">
    <ele>565.155</ele>
    <time>1970-01-01T00:02:58.000Z</time>
   </trkpt>
   <trkpt lon="12.61658573" lat="43.11923599">
    <ele>568.583</ele>
    <time>1970-01-01T00:02:59.000Z</time>
   </trkpt>
   <trkpt lon="12.61562729" lat="43.11866379">
    <ele>551.657</ele>
    <time>1970-01-01T00:03:00.000Z</time>
   </trkpt>
   <trkpt lon="12.61540222" lat="43.11843491">
    <ele>549.403</ele>
    <time>1970-01-01T00:03:01.000Z</time>
   </trkpt>
   <trkpt lon="12.61530972" lat="43.11813354">
    <ele>545.809</ele>
    <time>1970-01-01T00:03:02.000Z</time>
   </trkpt>
   <trkpt lon="12.61546040" lat="43.11784363">
    <ele>545.085</ele>
    <time>1970-01-01T00:03:03.000Z</time>
   </trkpt>
   <trkpt lon="12.61621380" lat="43.11695480">
    <ele>559.566</ele>
    <time>1970-01-01T00:03:04.000Z</time>
   </trkpt>
   <trkpt lon="12.61629391" lat="43.11672592">
    <ele>563.295</ele>
    <time>1970-01-01T00:03:05.000Z</time>
   </trkpt>
   <trkpt lon="12.61467075" lat="43.11526871">
    <ele>543.897</ele>
    <time>1970-01-01T00:03:06.000Z</time>
   </trkpt>
   <trkpt lon="12.61449146" lat="43.11495972">
    <ele>539.408</ele>
    <time>1970-01-01T00:03:07.000Z</time>
   </trkpt>
   <trkpt lon="12.61489487" lat="43.11431122">
    <ele>536.745</ele>
    <time>1970-01-01T00:03:08.000Z</time>
   </trkpt>
   <trkpt lon="12.61502266" lat="43.11404419">
    <ele>534.781</ele>
    <time>1970-01-01T00:03:09.000Z</time>
   </trkpt>
   <trkpt lon="12.61514282" lat="43.11383057">
    <ele>533.525</ele>
    <time>1970-01-01T00:03:10.000Z</time>
   </trkpt>
   <trkpt lon="12.61511707" lat="43.11347580">
    <ele>528.533</ele>
    <time>1970-01-01T00:03:11.000Z</time>
   </trkpt>
   <trkpt lon="12.61476326" lat="43.11283875">
    <ele>521.094</ele>
    <time>1970-01-01T00:03:12.000Z</time>
   </trkpt>
   <trkpt lon="12.61427498" lat="43.11234665">
    <ele>511.209</ele>
    <time>1970-01-01T00:03:13.000Z</time>
   </trkpt>
   <trkpt lon="12.61411095" lat="43.11203384">
    <ele>504.539</ele>
    <time>1970-01-01T00:03:14.000Z</time>
   </trkpt>
   <trkpt lon="12.61398602" lat="43.11187363">
    <ele>500.951</ele>
    <time>1970-01-01T00:03:15.000Z</time>
   </trkpt>
   <trkpt lon="12.61411095" lat="43.11162949">
    <ele>495.358</ele>
    <time>1970-01-01T00:03:16.000Z</time>
   </trkpt>
   <trkpt lon="12.61421680" lat="43.11148453">
    <ele>491.73</ele>
    <time>1970-01-01T00:03:17.000Z</time>
   </trkpt>
   <trkpt lon="12.61433697" lat="43.11134338">
    <ele>487.894</ele>
    <time>1970-01-01T00:03:18.000Z</time>
   </trkpt>
   <trkpt lon="12.61451435" lat="43.11108017">
    <ele>478.703</ele>
    <time>1970-01-01T00:03:19.000Z</time>
   </trkpt>
   <trkpt lon="12.61466122" lat="43.11088181">
    <ele>470.469</ele>
    <time>1970-01-01T00:03:20.000Z</time>
   </trkpt>
   <trkpt lon="12.61482430" lat="43.11079788">
    <ele>466.266</ele>
    <time>1970-01-01T00:03:21.000Z</time>
   </trkpt>
   <trkpt lon="12.61506557" lat="43.11067581">
    <ele>459.792</ele>
    <time>1970-01-01T00:03:22.000Z</time>
   </trkpt>
   <trkpt lon="12.61544991" lat="43.11046600">
    <ele>449.453</ele>
    <time>1970-01-01T00:03:23.000Z</time>
   </trkpt>
   <trkpt lon="12.61563969" lat="43.11050797">
    <ele>450.421</ele>
    <time>1970-01-01T00:03:24.000Z</time>
   </trkpt>
   <trkpt lon="12.61590195" lat="43.11055756">
    <ele>451.308</ele>
    <time>1970-01-01T00:03:25.000Z</time>
   </trkpt>
   <trkpt lon="12.61624146" lat="43.11043549">
    <ele>448.219</ele>
    <time>1970-01-01T00:03:26.000Z</time>
   </trkpt>
   <trkpt lon="12.61642361" lat="43.11042404">
    <ele>449.165</ele>
    <time>1970-01-01T00:03:27.000Z</time>
   </trkpt>
   <trkpt lon="12.61660671" lat="43.11045456">
    <ele>450.35</ele>
    <time>1970-01-01T00:03:28.000Z</time>
   </trkpt>
   <trkpt lon="12.61691666" lat="43.11061478">
    <ele>452.973</ele>
    <time>1970-01-01T00:03:29.000Z</time>
   </trkpt>
   <trkpt lon="12.61732483" lat="43.11017227">
    <ele>458.087</ele>
    <time>1970-01-01T00:03:30.000Z</time>
   </trkpt>
   <trkpt lon="12.61738968" lat="43.10996246">
    <ele>460.854</ele>
    <time>1970-01-01T00:03:31.000Z</time>
   </trkpt>
   <trkpt lon="12.61721992" lat="43.10977554">
    <ele>460.316</ele>
    <time>1970-01-01T00:03:32.000Z</time>
   </trkpt>
   <trkpt lon="12.61703396" lat="43.10964584">
    <ele>459.831</ele>
    <time>1970-01-01T00:03:33.000Z</time>
   </trkpt>
   <trkpt lon="12.61684990" lat="43.10939789">
    <ele>459.634</ele>
    <time>1970-01-01T00:03:34.000Z</time>
   </trkpt>
   <trkpt lon="12.61703873" lat="43.10880661">
    <ele>464.99</ele>
    <time>1970-01-01T00:03:35.000Z</time>
   </trkpt>
   <trkpt lon="12.61709595" lat="43.10862732">
    <ele>466.557</ele>
    <time>1970-01-01T00:03:36.000Z</time>
   </trkpt>
   <trkpt lon="12.61718273" lat="43.10843277">
    <ele>468.631</ele>
    <time>1970-01-01T00:03:37.000Z</time>
   </trkpt>
   <trkpt lon="12.61684227" lat="43.10836411">
    <ele>464.063</ele>
    <time>1970-01-01T00:03:38.000Z</time>
   </trkpt>
   <trkpt lon="12.61646748" lat="43.10837555">
    <ele>458.476</ele>
    <time>1970-01-01T00:03:39.000Z</time>
   </trkpt>
   <trkpt lon="12.61540699" lat="43.10791397">
    <ele>447.083</ele>
    <time>1970-01-01T00:03:40.000Z</time>
   </trkpt>
   <trkpt lon="12.61516285" lat="43.10768890">
    <ele>445.021</ele>
    <time>1970-01-01T00:03:41.000Z</time>
   </trkpt>
   <trkpt lon="12.61501217" lat="43.10744095">
    <ele>442.478</ele>
    <time>1970-01-01T00:03:42.000Z</time>
   </trkpt>
   <trkpt lon="12.61499119" lat="43.10713959">
    <ele>440.707</ele>
    <time>1970-01-01T00:03:43.000Z</time>
   </trkpt>
   <trkpt lon="12.61511230" lat="43.10683441">
    <ele>440.756</ele>
    <time>1970-01-01T00:03:44.000Z</time>
   </trkpt>
   <trkpt lon="12.61473656" lat="43.10592651">
    <ele>427.915</ele>
    <time>1970-01-01T00:03:45.000Z</time>
   </trkpt>
   <trkpt lon="12.61473179" lat="43.10560989">
    <ele>425.063</ele>
    <time>1970-01-01T00:03:46.000Z</time>
   </trkpt>
   <trkpt lon="12.61487484" lat="43.10501480">
    <ele>420.811</ele>
    <time>1970-01-01T00:03:47.000Z</time>
   </trkpt>
   <trkpt lon="12.61473083" lat="43.10443115">
    <ele>413.68</ele>
    <time>1970-01-01T00:03:48.000Z</time>
   </trkpt>
   <trkpt lon="12.61473560" lat="43.10393906">
    <ele>408.56</ele>
    <time>1970-01-01T00:03:49.000Z</time>
   </trkpt>
   <trkpt lon="12.61465168" lat="43.10368729">
    <ele>405.51</ele>
    <time>1970-01-01T00:03:50.000Z</time>
   </trkpt>
   <trkpt lon="12.61458111" lat="43.10348511">
    <ele>402.917</ele>
    <time>1970-01-01T00:03:51.000Z</time>
   </trkpt>
   <trkpt lon="12.61457920" lat="43.10328674">
    <ele>401.096</ele>
    <time>1970-01-01T00:03:52.000Z</time>
   </trkpt>
   <trkpt lon="12.61458206" lat="43.10298920">
    <ele>398.1</ele>
    <time>1970-01-01T00:03:53.000Z</time>
   </trkpt>
   <trkpt lon="12.61430359" lat="43.10273743">
    <ele>391.396</ele>
    <time>1970-01-01T00:03:54.000Z</time>
   </trkpt>
   <trkpt lon="12.61394596" lat="43.10256958">
    <ele>383.771</ele>
    <time>1970-01-01T00:03:55.000Z</time>
   </trkpt>
   <trkpt lon="12.61392975" lat="43.10238266">
    <ele>380.526</ele>
    <time>1970-01-01T00:03:56.000Z</time>
   </trkpt>
   <trkpt lon="12.61400414" lat="43.10225296">
    <ele>379.546</ele>
    <time>1970-01-01T00:03:57.000Z</time>
   </trkpt>
   <trkpt lon="12.61422634" lat="43.10200882">
    <ele>378.705</ele>
    <time>1970-01-01T00:03:58.000Z</time>
   </trkpt>
   <trkpt lon="12.61441326" lat="43.10178375">
    <ele>377.353</ele>
    <time>1970-01-01T00:03:59.000Z</time>
   </trkpt>
   <trkpt lon="12.61427975" lat="43.10136795">
    <ele>368.408</ele>
    <time>1970-01-01T00:04:00.000Z</time>
   </trkpt>
   <trkpt lon="12.61452675" lat="43.10088348">
    <ele>363.938</ele>
    <time>1970-01-01T00:04:01.000Z</time>
   </trkpt>
   <trkpt lon="12.61451530" lat="43.10064316">
    <ele>361.619</ele>
    <time>1970-01-01T00:04:02.000Z</time>
   </trkpt>
   <trkpt lon="12.61435986" lat="43.10048676">
    <ele>359.011</ele>
    <time>1970-01-01T00:04:03.000Z</time>
   </trkpt>
   <trkpt lon="12.61402321" lat="43.10007477">
    <ele>353.348</ele>
    <time>1970-01-01T00:04:04.000Z</time>
   </trkpt>
   <trkpt lon="12.61394882" lat="43.09983444">
    <ele>350.954</ele>
    <time>1970-01-01T00:04:05.000Z</time>
   </trkpt>
   <trkpt lon="12.61398029" lat="43.09965515">
    <ele>350.475</ele>
    <time>1970-01-01T00:04:06.000Z</time>
   </trkpt>
   <trkpt lon="12.61375904" lat="43.09954834">
    <ele>349.249</ele>
    <time>1970-01-01T00:04:07.000Z</time>
   </trkpt>
   <trkpt lon="12.61351681" lat="43.09927750">
    <ele>351.616</ele>
    <time>1970-01-01T00:04:08.000Z</time>
   </trkpt>
   <trkpt lon="12.61323833" lat="43.09925842">
    <ele>355.076</ele>
    <time>1970-01-01T00:04:09.000Z</time>
   </trkpt>
   <trkpt lon="12.61280632" lat="43.09920120">
    <ele>361.074</ele>
    <time>1970-01-01T00:04:10.000Z</time>
   </trkpt>
   <trkpt lon="12.61282730" lat="43.09909058">
    <ele>362.082</ele>
    <time>1970-01-01T00:04:11.000Z</time>
   </trkpt>
   <trkpt lon="12.61286640" lat="43.09897232">
    <ele>363.503</ele>
    <time>1970-01-01T00:04:12.000Z</time>
   </trkpt>
   <trkpt lon="12.61286831" lat="43.09885788">
    <ele>365.955</ele>
    <time>1970-01-01T00:04:13.000Z</time>
   </trkpt>
   <trkpt lon="12.61274719" lat="43.09878159">
    <ele>369.376</ele>
    <time>1970-01-01T00:04:14.000Z</time>
   </trkpt>
   <trkpt lon="12.61225796" lat="43.09880066">
    <ele>375.625</ele>
    <time>1970-01-01T00:04:15.000Z</time>
   </trkpt>
   <trkpt lon="12.61209393" lat="43.09853745">
    <ele>384.907</ele>
    <time>1970-01-01T00:04:16.000Z</time>
   </trkpt>
   <trkpt lon="12.61212540" lat="43.09829330">
    <ele>390.735</ele>
    <time>1970-01-01T00:04:17.000Z</time>
   </trkpt>
   <trkpt lon="12.61223412" lat="43.09796906">
    <ele>396.572</ele>
    <time>1970-01-01T00:04:18.000Z</time>
   </trkpt>
   <trkpt lon="12.61232281" lat="43.09778976">
    <ele>399.069</ele>
    <time>1970-01-01T00:04:19.000Z</time>
   </trkpt>
   <trkpt lon="12.61249828" lat="43.09745407">
    <ele>400.832</ele>
    <time>1970-01-01T00:04:20.000Z</time>
   </trkpt>
   <trkpt lon="12.61260605" lat="43.09725952">
    <ele>400.071</ele>
    <time>1970-01-01T00:04:21.000Z</time>
   </trkpt>
   <trkpt lon="12.61255836" lat="43.09710693">
    <ele>402.027</ele>
    <time>1970-01-01T00:04:22.000Z</time>
   </trkpt>
   <trkpt lon="12.61236954" lat="43.09719849">
    <ele>405.586</ele>
    <time>1970-01-01T00:04:23.000Z</time>
   </trkpt>
   <trkpt lon="12.61221695" lat="43.09730148">
    <ele>408.127</ele>
    <time>1970-01-01T00:04:24.000Z</time>
   </trkpt>
   <trkpt lon="12.61183071" lat="43.09751511">
    <ele>414.454</ele>
    <time>1970-01-01T00:04:25.000Z</time>
   </trkpt>
   <trkpt lon="12.61129284" lat="43.09786987">
    <ele>415.478</ele>
    <time>1970-01-01T00:04:26.000Z</time>
   </trkpt>
   <trkpt lon="12.61094666" lat="43.09785080">
    <ele>420.126</ele>
    <time>1970-01-01T00:04:27.000Z</time>
   </trkpt>
   <trkpt lon="12.61049080" lat="43.09729004">
    <ele>425.841</ele>
    <time>1970-01-01T00:04:28.000Z</time>
   </trkpt>
   <trkpt lon="12.61061096" lat="43.09706879">
    <ele>426.957</ele>
    <time>1970-01-01T00:04:29.000Z</time>
   </trkpt>
   <trkpt lon="12.61097431" lat="43.09666061">
    <ele>423.263</ele>
    <time>1970-01-01T00:04:30.000Z</time>
   </trkpt>
   <trkpt lon="12.61095333" lat="43.09646225">
    <ele>420.499</ele>
    <time>1970-01-01T00:04:31.000Z</time>
   </trkpt>
   <trkpt lon="12.61093616" lat="43.09622574">
    <ele>417.213</ele>
    <time>1970-01-01T00:04:32.000Z</time>
   </trkpt>
   <trkpt lon="12.61093616" lat="43.09617233">
    <ele>416.26</ele>
    <time>1970-01-01T00:04:33.000Z</time>
   </trkpt>
   <trkpt lon="12.61108112" lat="43.09594345">
    <ele>412.708</ele>
    <time>1970-01-01T00:04:34.000Z</time>
   </trkpt>
   <trkpt lon="12.61136246" lat="43.09582138">
    <ele>411.976</ele>
    <time>1970-01-01T00:04:35.000Z</time>
   </trkpt>
   <trkpt lon="12.61141872" lat="43.09575272">
    <ele>410.983</ele>
    <time>1970-01-01T00:04:36.000Z</time>
   </trkpt>
   <trkpt lon="12.61160946" lat="43.09546661">
    <ele>405.531</ele>
    <time>1970-01-01T00:04:37.000Z</time>
   </trkpt>
   <trkpt lon="12.61141586" lat="43.09540939">
    <ele>404.868</ele>
    <time>1970-01-01T00:04:38.000Z</time>
   </trkpt>
   <trkpt lon="12.61119461" lat="43.09543991">
    <ele>404.016</ele>
    <time>1970-01-01T00:04:39.000Z</time>
   </trkpt>
   <trkpt lon="12.61088276" lat="43.09542465">
    <ele>402.08</ele>
    <time>1970-01-01T00:04:40.000Z</time>
   </trkpt>
   <trkpt lon="12.61057472" lat="43.09538269">
    <ele>399.785</ele>
    <time>1970-01-01T00:04:41.000Z</time>
   </trkpt>
   <trkpt lon="12.61047363" lat="43.09509277">
    <ele>395.278</ele>
    <time>1970-01-01T00:04:42.000Z</time>
   </trkpt>
   <trkpt lon="12.61064816" lat="43.09482956">
    <ele>392.851</ele>
    <time>1970-01-01T00:04:43.000Z</time>
   </trkpt>
   <trkpt lon="12.61081696" lat="43.09456635">
    <ele>390.165</ele>
    <time>1970-01-01T00:04:44.000Z</time>
   </trkpt>
   <trkpt lon="12.61095047" lat="43.09431839">
    <ele>387.687</ele>
    <time>1970-01-01T00:04:45.000Z</time>
   </trkpt>
   <trkpt lon="12.61104584" lat="43.09410858">
    <ele>385.664</ele>
    <time>1970-01-01T00:04:46.000Z</time>
   </trkpt>
   <trkpt lon="12.61108780" lat="43.09389877">
    <ele>383.101</ele>
    <time>1970-01-01T00:04:47.000Z</time>
   </trkpt>
   <trkpt lon="12.61109638" lat="43.09387589">
    <ele>382.868</ele>
    <time>1970-01-01T00:04:48.000Z</time>
   </trkpt>
   <trkpt lon="12.61115074" lat="43.09370422">
    <ele>381.114</ele>
    <time>1970-01-01T00:04:49.000Z</time>
   </trkpt>
   <trkpt lon="12.61131859" lat="43.09324646">
    <ele>377.532</ele>
    <time>1970-01-01T00:04:50.000Z</time>
   </trkpt>
   <trkpt lon="12.61144829" lat="43.09289932">
    <ele>374.015</ele>
    <time>1970-01-01T00:04:51.000Z</time>
   </trkpt>
   <trkpt lon="12.61159992" lat="43.09260941">
    <ele>371.596</ele>
    <time>1970-01-01T00:04:52.000Z</time>
   </trkpt>
   <trkpt lon="12.61169338" lat="43.09201431">
    <ele>364.564</ele>
    <time>1970-01-01T00:04:53.000Z</time>
   </trkpt>
   <trkpt lon="12.61166859" lat="43.09175110">
    <ele>361.212</ele>
    <time>1970-01-01T00:04:54.000Z</time>
   </trkpt>
   <trkpt lon="12.61161804" lat="43.09150314">
    <ele>358.607</ele>
    <time>1970-01-01T00:04:55.000Z</time>
   </trkpt>
   <trkpt lon="12.61171532" lat="43.09115219">
    <ele>355.074</ele>
    <time>1970-01-01T00:04:56.000Z</time>
   </trkpt>
   <trkpt lon="12.61172867" lat="43.09082031">
    <ele>350.877</ele>
    <time>1970-01-01T00:04:57.000Z</time>
   </trkpt>
   <trkpt lon="12.61191273" lat="43.09024429">
    <ele>342.83</ele>
    <time>1970-01-01T00:04:58.000Z</time>
   </trkpt>
   <trkpt lon="12.61198997" lat="43.08993149">
    <ele>337.898</ele>
    <time>1970-01-01T00:04:59.000Z</time>
   </trkpt>
   <trkpt lon="12.61189365" lat="43.08963013">
    <ele>333.39</ele>
    <time>1970-01-01T00:05:00.000Z</time>
   </trkpt>
   <trkpt lon="12.61137104" lat="43.08919144">
    <ele>330.249</ele>
    <time>1970-01-01T00:05:01.000Z</time>
   </trkpt>
   <trkpt lon="12.61120224" lat="43.08892822">
    <ele>329.621</ele>
    <time>1970-01-01T00:05:02.000Z</time>
   </trkpt>
   <trkpt lon="12.61109257" lat="43.08863068">
    <ele>329.723</ele>
    <time>1970-01-01T00:05:03.000Z</time>
   </trkpt>
   <trkpt lon="12.61094284" lat="43.08773041">
    <ele>328.332</ele>
    <time>1970-01-01T00:05:04.000Z</time>
   </trkpt>
   <trkpt lon="12.61092567" lat="43.08747864">
    <ele>327.868</ele>
    <time>1970-01-01T00:05:05.000Z</time>
   </trkpt>
   <trkpt lon="12.61087799" lat="43.08715439">
    <ele>327.364</ele>
    <time>1970-01-01T00:05:06.000Z</time>
   </trkpt>
   <trkpt lon="12.61086369" lat="43.08683395">
    <ele>326.932</ele>
    <time>1970-01-01T00:05:07.000Z</time>
   </trkpt>
   <trkpt lon="12.61071396" lat="43.08554840">
    <ele>328.84</ele>
    <time>1970-01-01T00:05:08.000Z</time>
   </trkpt>
   <trkpt lon="12.61055470" lat="43.08474350">
    <ele>330.89</ele>
    <time>1970-01-01T00:05:09.000Z</time>
   </trkpt>
   <trkpt lon="12.61023235" lat="43.08398819">
    <ele>321.52</ele>
    <time>1970-01-01T00:05:10.000Z</time>
   </trkpt>
   <trkpt lon="12.61037064" lat="43.08365250">
    <ele>315.205</ele>
    <time>1970-01-01T00:05:11.000Z</time>
   </trkpt>
   <trkpt lon="12.61054897" lat="43.08334351">
    <ele>310.785</ele>
    <time>1970-01-01T00:05:12.000Z</time>
   </trkpt>
   <trkpt lon="12.61079788" lat="43.08306503">
    <ele>308.504</ele>
    <time>1970-01-01T00:05:13.000Z</time>
   </trkpt>
   <trkpt lon="12.61098957" lat="43.08277512">
    <ele>303.257</ele>
    <time>1970-01-01T00:05:14.000Z</time>
   </trkpt>
   <trkpt lon="12.61116600" lat="43.08240128">
    <ele>296.948</ele>
    <time>1970-01-01T00:05:15.000Z</time>
   </trkpt>
   <trkpt lon="12.61138535" lat="43.08163834">
    <ele>288.333</ele>
    <time>1970-01-01T00:05:16.000Z</time>
   </trkpt>
   <trkpt lon="12.61143780" lat="43.08091354">
    <ele>279.068</ele>
    <time>1970-01-01T00:05:17.000Z</time>
   </trkpt>
   <trkpt lon="12.61131382" lat="43.08058929">
    <ele>276.088</ele>
    <time>1970-01-01T00:05:18.000Z</time>
   </trkpt>
   <trkpt lon="12.61074924" lat="43.07982254">
    <ele>271.105</ele>
    <time>1970-01-01T00:05:19.000Z</time>
   </trkpt>
   <trkpt lon="12.61061573" lat="43.07953644">
    <ele>268.763</ele>
    <time>1970-01-01T00:05:20.000Z</time>
   </trkpt>
   <trkpt lon="12.61065769" lat="43.07937622">
    <ele>267.46</ele>
    <time>1970-01-01T00:05:21.000Z</time>
   </trkpt>
   <trkpt lon="12.61068058" lat="43.07934570">
    <ele>267.15</ele>
    <time>1970-01-01T00:05:22.000Z</time>
   </trkpt>
   <trkpt lon="12.61079979" lat="43.07919312">
    <ele>265.679</ele>
    <time>1970-01-01T00:05:23.000Z</time>
   </trkpt>
   <trkpt lon="12.61117172" lat="43.07930756">
    <ele>264.676</ele>
    <time>1970-01-01T00:05:24.000Z</time>
   </trkpt>
   <trkpt lon="12.61157608" lat="43.07954025">
    <ele>264.717</ele>
    <time>1970-01-01T00:05:25.000Z</time>
   </trkpt>
   <trkpt lon="12.61189461" lat="43.07965088">
    <ele>269.642</ele>
    <time>1970-01-01T00:05:26.000Z</time>
   </trkpt>
   <trkpt lon="12.61239910" lat="43.07994080">
    <ele>272.886</ele>
    <time>1970-01-01T00:05:27.000Z</time>
   </trkpt>
   <trkpt lon="12.61273956" lat="43.08011246">
    <ele>277.213</ele>
    <time>1970-01-01T00:05:28.000Z</time>
   </trkpt>
   <trkpt lon="12.61347198" lat="43.08060074">
    <ele>285.57</ele>
    <time>1970-01-01T00:05:29.000Z</time>
   </trkpt>
   <trkpt lon="12.61376286" lat="43.08086777">
    <ele>286.545</ele>
    <time>1970-01-01T00:05:30.000Z</time>
   </trkpt>
   <trkpt lon="12.61426830" lat="43.08176422">
    <ele>279.132</ele>
    <time>1970-01-01T00:05:31.000Z</time>
   </trkpt>
   <trkpt lon="12.61437035" lat="43.08200073">
    <ele>277.045</ele>
    <time>1970-01-01T00:05:32.000Z</time>
   </trkpt>
   <trkpt lon="12.61454391" lat="43.08242798">
    <ele>270.637</ele>
    <time>1970-01-01T00:05:33.000Z</time>
   </trkpt>
   <trkpt lon="12.61502838" lat="43.08274078">
    <ele>275.374</ele>
    <time>1970-01-01T00:05:34.000Z</time>
   </trkpt>
   <trkpt lon="12.61571789" lat="43.08286285">
    <ele>281.23</ele>
    <time>1970-01-01T00:05:35.000Z</time>
   </trkpt>
   <trkpt lon="12.61596584" lat="43.08290100">
    <ele>288.165</ele>
    <time>1970-01-01T00:05:36.000Z</time>
   </trkpt>
   <trkpt lon="12.61594772" lat="43.08257675">
    <ele>282.546</ele>
    <time>1970-01-01T00:05:37.000Z</time>
   </trkpt>
   <trkpt lon="12.61590958" lat="43.08234024">
    <ele>278.674</ele>
    <time>1970-01-01T00:05:38.000Z</time>
   </trkpt>
   <trkpt lon="12.61566925" lat="43.08219910">
    <ele>277.512</ele>
    <time>1970-01-01T00:05:39.000Z</time>
   </trkpt>
   <trkpt lon="12.61533070" lat="43.08196640">
    <ele>280.493</ele>
    <time>1970-01-01T00:05:40.000Z</time>
   </trkpt>
   <trkpt lon="12.61501217" lat="43.08152771">
    <ele>292.35</ele>
    <time>1970-01-01T00:05:41.000Z</time>
   </trkpt>
   <trkpt lon="12.61491585" lat="43.08135223">
    <ele>299.568</ele>
    <time>1970-01-01T00:05:42.000Z</time>
   </trkpt>
   <trkpt lon="12.61478329" lat="43.08107376">
    <ele>309.923</ele>
    <time>1970-01-01T00:05:43.000Z</time>
   </trkpt>
   <trkpt lon="12.61472321" lat="43.08092880">
    <ele>314.669</ele>
    <time>1970-01-01T00:05:44.000Z</time>
   </trkpt>
   <trkpt lon="12.61462116" lat="43.08058548">
    <ele>323.652</ele>
    <time>1970-01-01T00:05:45.000Z</time>
   </trkpt>
   <trkpt lon="12.61448574" lat="43.08025360">
    <ele>329.981</ele>
    <time>1970-01-01T00:05:46.000Z</time>
   </trkpt>
   <trkpt lon="12.61435604" lat="43.07996750">
    <ele>332.657</ele>
    <time>1970-01-01T00:05:47.000Z</time>
   </trkpt>
   <trkpt lon="12.61415195" lat="43.07949448">
    <ele>338.171</ele>
    <time>1970-01-01T00:05:48.000Z</time>
   </trkpt>
   <trkpt lon="12.61378288" lat="43.07899094">
    <ele>337.798</ele>
    <time>1970-01-01T00:05:49.000Z</time>
   </trkpt>
   <trkpt lon="12.61370468" lat="43.07869339">
    <ele>343.382</ele>
    <time>1970-01-01T00:05:50.000Z</time>
   </trkpt>
   <trkpt lon="12.61368084" lat="43.07840347">
    <ele>352.985</ele>
    <time>1970-01-01T00:05:51.000Z</time>
   </trkpt>
   <trkpt lon="12.61357880" lat="43.07811737">
    <ele>359.601</ele>
    <time>1970-01-01T00:05:52.000Z</time>
   </trkpt>
   <trkpt lon="12.61347294" lat="43.07785034">
    <ele>366.176</ele>
    <time>1970-01-01T00:05:53.000Z</time>
   </trkpt>
   <trkpt lon="12.61336899" lat="43.07763290">
    <ele>371.859</ele>
    <time>1970-01-01T00:05:54.000Z</time>
   </trkpt>
   <trkpt lon="12.61322403" lat="43.07737732">
    <ele>377.425</ele>
    <time>1970-01-01T00:05:55.000Z</time>
   </trkpt>
   <trkpt lon="12.61258602" lat="43.07638931">
    <ele>400.018</ele>
    <time>1970-01-01T00:05:56.000Z</time>
   </trkpt>
   <trkpt lon="12.61236668" lat="43.07618332">
    <ele>404.469</ele>
    <time>1970-01-01T00:05:57.000Z</time>
   </trkpt>
   <trkpt lon="12.61201000" lat="43.07582855">
    <ele>411.277</ele>
    <time>1970-01-01T00:05:58.000Z</time>
   </trkpt>
   <trkpt lon="12.61184597" lat="43.07566833">
    <ele>414.346</ele>
    <time>1970-01-01T00:05:59.000Z</time>
   </trkpt>
   <trkpt lon="12.61164665" lat="43.07554245">
    <ele>415.228</ele>
    <time>1970-01-01T00:06:00.000Z</time>
   </trkpt>
   <trkpt lon="12.61131001" lat="43.07540512">
    <ele>413.735</ele>
    <time>1970-01-01T00:06:01.000Z</time>
   </trkpt>
   <trkpt lon="12.61045170" lat="43.07498169">
    <ele>408.005</ele>
    <time>1970-01-01T00:06:02.000Z</time>
   </trkpt>
   <trkpt lon="12.61015987" lat="43.07484055">
    <ele>407.473</ele>
    <time>1970-01-01T00:06:03.000Z</time>
   </trkpt>
   <trkpt lon="12.60989666" lat="43.07469940">
    <ele>411.063</ele>
    <time>1970-01-01T00:06:04.000Z</time>
   </trkpt>
   <trkpt lon="12.60963821" lat="43.07458878">
    <ele>412.722</ele>
    <time>1970-01-01T00:06:05.000Z</time>
   </trkpt>
   <trkpt lon="12.60952187" lat="43.07457352">
    <ele>412.174</ele>
    <time>1970-01-01T00:06:06.000Z</time>
   </trkpt>
   <trkpt lon="12.60935879" lat="43.07454681">
    <ele>411.442</ele>
    <time>1970-01-01T00:06:07.000Z</time>
   </trkpt>
   <trkpt lon="12.60913277" lat="43.07452393">
    <ele>409.553</ele>
    <time>1970-01-01T00:06:08.000Z</time>
   </trkpt>
   <trkpt lon="12.60907459" lat="43.07452011">
    <ele>408.892</ele>
    <time>1970-01-01T00:06:09.000Z</time>
   </trkpt>
   <trkpt lon="12.60877228" lat="43.07444763">
    <ele>405.677</ele>
    <time>1970-01-01T00:06:10.000Z</time>
   </trkpt>
   <trkpt lon="12.60853004" lat="43.07451630">
    <ele>402.35</ele>
    <time>1970-01-01T00:06:11.000Z</time>
   </trkpt>
   <trkpt lon="12.60824108" lat="43.07457733">
    <ele>398.511</ele>
    <time>1970-01-01T00:06:12.000Z</time>
   </trkpt>
   <trkpt lon="12.60795212" lat="43.07455444">
    <ele>393.647</ele>
    <time>1970-01-01T00:06:13.000Z</time>
   </trkpt>
   <trkpt lon="12.60769176" lat="43.07457352">
    <ele>389.211</ele>
    <time>1970-01-01T00:06:14.000Z</time>
   </trkpt>
   <trkpt lon="12.60750008" lat="43.07453156">
    <ele>385.854</ele>
    <time>1970-01-01T00:06:15.000Z</time>
   </trkpt>
   <trkpt lon="12.60732937" lat="43.07445145">
    <ele>382.653</ele>
    <time>1970-01-01T00:06:16.000Z</time>
   </trkpt>
   <trkpt lon="12.60715294" lat="43.07429886">
    <ele>378.155</ele>
    <time>1970-01-01T00:06:17.000Z</time>
   </trkpt>
   <trkpt lon="12.60709763" lat="43.07415009">
    <ele>376.05</ele>
    <time>1970-01-01T00:06:18.000Z</time>
   </trkpt>
   <trkpt lon="12.60684872" lat="43.07428360">
    <ele>370.447</ele>
    <time>1970-01-01T00:06:19.000Z</time>
   </trkpt>
   <trkpt lon="12.60651779" lat="43.07440948">
    <ele>363.617</ele>
    <time>1970-01-01T00:06:20.000Z</time>
   </trkpt>
   <trkpt lon="12.60625458" lat="43.07444382">
    <ele>358.072</ele>
    <time>1970-01-01T00:06:21.000Z</time>
   </trkpt>
   <trkpt lon="12.60600281" lat="43.07439423">
    <ele>352.13</ele>
    <time>1970-01-01T00:06:22.000Z</time>
   </trkpt>
   <trkpt lon="12.60587788" lat="43.07446289">
    <ele>351.244</ele>
    <time>1970-01-01T00:06:23.000Z</time>
   </trkpt>
   <trkpt lon="12.60558033" lat="43.07468414">
    <ele>352.371</ele>
    <time>1970-01-01T00:06:24.000Z</time>
   </trkpt>
  </trkseg>
 </trk>
 <trk>
  <name>Variante 1</name>
  <extensions>
   <gpxx:TrackExtension>
    <gpxx:DisplayColor>DarkBlue</gpxx:DisplayColor>
   </gpxx:TrackExtension>
   <ql:key>1366986307Variante 13</ql:key>
  </extensions>
  <trkseg>
   <trkpt lon="12.61384010" lat="43.14545059">
    <ele>317.395</ele>
    <time>1970-01-01T00:06:25.000Z</time>
   </trkpt>
   <trkpt lon="12.61380959" lat="43.14537811">
    <ele>318.427</ele>
    <time>1970-01-01T00:06:26.000Z</time>
   </trkpt>
   <trkpt lon="12.61408043" lat="43.14482117">
    <ele>331.688</ele>
    <time>1970-01-01T00:06:27.000Z</time>
   </trkpt>
   <trkpt lon="12.61474037" lat="43.14403915">
    <ele>352.175</ele>
    <time>1970-01-01T00:06:28.000Z</time>
   </trkpt>
   <trkpt lon="12.61553001" lat="43.14358902">
    <ele>367.227</ele>
    <time>1970-01-01T00:06:29.000Z</time>
   </trkpt>
   <trkpt lon="12.61555004" lat="43.14347839">
    <ele>369.811</ele>
    <time>1970-01-01T00:06:30.000Z</time>
   </trkpt>
   <trkpt lon="12.61548996" lat="43.14339828">
    <ele>371.988</ele>
    <time>1970-01-01T00:06:31.000Z</time>
   </trkpt>
   <trkpt lon="12.61518955" lat="43.14323044">
    <ele>374.42</ele>
    <time>1970-01-01T00:06:32.000Z</time>
   </trkpt>
   <trkpt lon="12.61515045" lat="43.14313889">
    <ele>375.502</ele>
    <time>1970-01-01T00:06:33.000Z</time>
   </trkpt>
   <trkpt lon="12.61515999" lat="43.14286041">
    <ele>380.791</ele>
    <time>1970-01-01T00:06:34.000Z</time>
   </trkpt>
   <trkpt lon="12.61520004" lat="43.14276886">
    <ele>382.883</ele>
    <time>1970-01-01T00:06:35.000Z</time>
   </trkpt>
   <trkpt lon="12.61528969" lat="43.14273834">
    <ele>384.718</ele>
    <time>1970-01-01T00:06:36.000Z</time>
   </trkpt>
   <trkpt lon="12.61565018" lat="43.14271927">
    <ele>388.88</ele>
    <time>1970-01-01T00:06:37.000Z</time>
   </trkpt>
   <trkpt lon="12.61575031" lat="43.14265823">
    <ele>391.27</ele>
    <time>1970-01-01T00:06:38.000Z</time>
   </trkpt>
   <trkpt lon="12.61585999" lat="43.14231110">
    <ele>400.891</ele>
    <time>1970-01-01T00:06:39.000Z</time>
   </trkpt>
   <trkpt lon="12.61592960" lat="43.14179993">
    <ele>413.345</ele>
    <time>1970-01-01T00:06:40.000Z</time>
   </trkpt>
   <trkpt lon="12.61590004" lat="43.14168167">
    <ele>415.202</ele>
    <time>1970-01-01T00:06:41.000Z</time>
   </trkpt>
   <trkpt lon="12.61565971" lat="43.14142990">
    <ele>415.273</ele>
    <time>1970-01-01T00:06:42.000Z</time>
   </trkpt>
   <trkpt lon="12.61557961" lat="43.14104843">
    <ele>416.959</ele>
    <time>1970-01-01T00:06:43.000Z</time>
   </trkpt>
   <trkpt lon="12.61553001" lat="43.14094925">
    <ele>417.007</ele>
    <time>1970-01-01T00:06:44.000Z</time>
   </trkpt>
   <trkpt lon="12.61501026" lat="43.14057159">
    <ele>412.562</ele>
    <time>1970-01-01T00:06:45.000Z</time>
   </trkpt>
   <trkpt lon="12.61507034" lat="43.14028168">
    <ele>415.796</ele>
    <time>1970-01-01T00:06:46.000Z</time>
   </trkpt>
   <trkpt lon="12.61520958" lat="43.14009094">
    <ele>419.597</ele>
    <time>1970-01-01T00:06:47.000Z</time>
   </trkpt>
   <trkpt lon="12.61509037" lat="43.14025879">
    <ele>416.362</ele>
    <time>1970-01-01T00:06:48.000Z</time>
   </trkpt>
   <trkpt lon="12.61501026" lat="43.14059830">
    <ele>412.374</ele>
    <time>1970-01-01T00:06:49.000Z</time>
   </trkpt>
   <trkpt lon="12.61505985" lat="43.14065933">
    <ele>412.736</ele>
    <time>1970-01-01T00:06:50.000Z</time>
   </trkpt>
   <trkpt lon="12.61499977" lat="43.14057922">
    <ele>412.335</ele>
    <time>1970-01-01T00:06:51.000Z</time>
   </trkpt>
   <trkpt lon="12.61505985" lat="43.14036942">
    <ele>414.919</ele>
    <time>1970-01-01T00:06:52.000Z</time>
   </trkpt>
   <trkpt lon="12.61526012" lat="43.14007950">
    <ele>420.494</ele>
    <time>1970-01-01T00:06:53.000Z</time>
   </trkpt>
   <trkpt lon="12.61567974" lat="43.13983154">
    <ele>429.653</ele>
    <time>1970-01-01T00:06:54.000Z</time>
   </trkpt>
   <trkpt lon="12.61598015" lat="43.13922119">
    <ele>442.689</ele>
    <time>1970-01-01T00:06:55.000Z</time>
   </trkpt>
   <trkpt lon="12.61608028" lat="43.13917160">
    <ele>445.997</ele>
    <time>1970-01-01T00:06:56.000Z</time>
   </trkpt>
   <trkpt lon="12.61616993" lat="43.13925934">
    <ele>447.78</ele>
    <time>1970-01-01T00:06:57.000Z</time>
   </trkpt>
   <trkpt lon="12.61616039" lat="43.13936996">
    <ele>445.845</ele>
    <time>1970-01-01T00:06:58.000Z</time>
   </trkpt>
   <trkpt lon="12.61627007" lat="43.13948822">
    <ele>447.031</ele>
    <time>1970-01-01T00:06:59.000Z</time>
   </trkpt>
   <trkpt lon="12.61641026" lat="43.13957977">
    <ele>449.223</ele>
    <time>1970-01-01T00:07:00.000Z</time>
   </trkpt>
   <trkpt lon="12.61680031" lat="43.13964081">
    <ele>458.134</ele>
    <time>1970-01-01T00:07:01.000Z</time>
   </trkpt>
   <trkpt lon="12.61721039" lat="43.13964081">
    <ele>467.688</ele>
    <time>1970-01-01T00:07:02.000Z</time>
   </trkpt>
   <trkpt lon="12.61775970" lat="43.13977814">
    <ele>475.588</ele>
    <time>1970-01-01T00:07:03.000Z</time>
   </trkpt>
   <trkpt lon="12.61802006" lat="43.13991928">
    <ele>477.442</ele>
    <time>1970-01-01T00:07:04.000Z</time>
   </trkpt>
   <trkpt lon="12.61830997" lat="43.14014053">
    <ele>470.311</ele>
    <time>1970-01-01T00:07:05.000Z</time>
   </trkpt>
   <trkpt lon="12.61843967" lat="43.14014816">
    <ele>469.344</ele>
    <time>1970-01-01T00:07:06.000Z</time>
   </trkpt>
   <trkpt lon="12.61900043" lat="43.13978958">
    <ele>477.973</ele>
    <time>1970-01-01T00:07:07.000Z</time>
   </trkpt>
   <trkpt lon="12.61927986" lat="43.13956070">
    <ele>476.894</ele>
    <time>1970-01-01T00:07:08.000Z</time>
   </trkpt>
   <trkpt lon="12.61948013" lat="43.13906860">
    <ele>486.444</ele>
    <time>1970-01-01T00:07:09.000Z</time>
   </trkpt>
   <trkpt lon="12.61960030" lat="43.13887024">
    <ele>489.817</ele>
    <time>1970-01-01T00:07:10.000Z</time>
   </trkpt>
   <trkpt lon="12.61958027" lat="43.13850021">
    <ele>502.789</ele>
    <time>1970-01-01T00:07:11.000Z</time>
   </trkpt>
   <trkpt lon="12.61950016" lat="43.13842010">
    <ele>507.053</ele>
    <time>1970-01-01T00:07:12.000Z</time>
   </trkpt>
   <trkpt lon="12.61921024" lat="43.13851929">
    <ele>509.921</ele>
    <time>1970-01-01T00:07:13.000Z</time>
   </trkpt>
   <trkpt lon="12.61907959" lat="43.13853073">
    <ele>512.321</ele>
    <time>1970-01-01T00:07:14.000Z</time>
   </trkpt>
   <trkpt lon="12.61896038" lat="43.13837051">
    <ele>518.728</ele>
    <time>1970-01-01T00:07:15.000Z</time>
   </trkpt>
   <trkpt lon="12.61870956" lat="43.13740921">
    <ele>533.483</ele>
    <time>1970-01-01T00:07:16.000Z</time>
   </trkpt>
   <trkpt lon="12.61872005" lat="43.13732147">
    <ele>534.289</ele>
    <time>1970-01-01T00:07:17.000Z</time>
   </trkpt>
   <trkpt lon="12.61909962" lat="43.13679886">
    <ele>541.892</ele>
    <time>1970-01-01T00:07:18.000Z</time>
   </trkpt>
   <trkpt lon="12.61975002" lat="43.13571167">
    <ele>555.39</ele>
    <time>1970-01-01T00:07:19.000Z</time>
   </trkpt>
   <trkpt lon="12.61981964" lat="43.13541031">
    <ele>559.042</ele>
    <time>1970-01-01T00:07:20.000Z</time>
   </trkpt>
   <trkpt lon="12.62005043" lat="43.13484955">
    <ele>567.958</ele>
    <time>1970-01-01T00:07:21.000Z</time>
   </trkpt>
   <trkpt lon="12.61995983" lat="43.13433838">
    <ele>575.088</ele>
    <time>1970-01-01T00:07:22.000Z</time>
   </trkpt>
   <trkpt lon="12.61964989" lat="43.13359070">
    <ele>578.3</ele>
    <time>1970-01-01T00:07:23.000Z</time>
   </trkpt>
   <trkpt lon="12.61944962" lat="43.13322830">
    <ele>576.857</ele>
    <time>1970-01-01T00:07:24.000Z</time>
   </trkpt>
   <trkpt lon="12.61944008" lat="43.13304138">
    <ele>577.508</ele>
    <time>1970-01-01T00:07:25.000Z</time>
   </trkpt>
   <trkpt lon="12.61960983" lat="43.13264084">
    <ele>582.488</ele>
    <time>1970-01-01T00:07:26.000Z</time>
   </trkpt>
   <trkpt lon="12.61960030" lat="43.13251114">
    <ele>583.321</ele>
    <time>1970-01-01T00:07:27.000Z</time>
   </trkpt>
   <trkpt lon="12.61964035" lat="43.13238144">
    <ele>584.18</ele>
    <time>1970-01-01T00:07:28.000Z</time>
   </trkpt>
   <trkpt lon="12.61964035" lat="43.13214874">
    <ele>585.531</ele>
    <time>1970-01-01T00:07:29.000Z</time>
   </trkpt>
   <trkpt lon="12.61952972" lat="43.13183975">
    <ele>587.844</ele>
    <time>1970-01-01T00:07:30.000Z</time>
   </trkpt>
   <trkpt lon="12.61933994" lat="43.13148880">
    <ele>588.259</ele>
    <time>1970-01-01T00:07:31.000Z</time>
   </trkpt>
   <trkpt lon="12.61888027" lat="43.13077164">
    <ele>585.229</ele>
    <time>1970-01-01T00:07:32.000Z</time>
   </trkpt>
   <trkpt lon="12.61870956" lat="43.13031006">
    <ele>581.845</ele>
    <time>1970-01-01T00:07:33.000Z</time>
   </trkpt>
   <trkpt lon="12.61857033" lat="43.13003922">
    <ele>578.865</ele>
    <time>1970-01-01T00:07:34.000Z</time>
   </trkpt>
   <trkpt lon="12.61822987" lat="43.12963867">
    <ele>578.433</ele>
    <time>1970-01-01T00:07:35.000Z</time>
   </trkpt>
   <trkpt lon="12.61822033" lat="43.12953186">
    <ele>578.907</ele>
    <time>1970-01-01T00:07:36.000Z</time>
   </trkpt>
   <trkpt lon="12.61841011" lat="43.12910843">
    <ele>578.714</ele>
    <time>1970-01-01T00:07:37.000Z</time>
   </trkpt>
   <trkpt lon="12.61839008" lat="43.12902832">
    <ele>579.773</ele>
    <time>1970-01-01T00:07:38.000Z</time>
   </trkpt>
   <trkpt lon="12.61865044" lat="43.12868118">
    <ele>578.102</ele>
    <time>1970-01-01T00:07:39.000Z</time>
   </trkpt>
   <trkpt lon="12.61867046" lat="43.12855911">
    <ele>578.313</ele>
    <time>1970-01-01T00:07:40.000Z</time>
   </trkpt>
   <trkpt lon="12.61874008" lat="43.12847137">
    <ele>577.168</ele>
    <time>1970-01-01T00:07:41.000Z</time>
   </trkpt>
   <trkpt lon="12.61882019" lat="43.12815094">
    <ele>576.383</ele>
    <time>1970-01-01T00:07:42.000Z</time>
   </trkpt>
   <trkpt lon="12.61894989" lat="43.12794113">
    <ele>573.783</ele>
    <time>1970-01-01T00:07:43.000Z</time>
   </trkpt>
   <trkpt lon="12.61900997" lat="43.12776184">
    <ele>572.691</ele>
    <time>1970-01-01T00:07:44.000Z</time>
   </trkpt>
   <trkpt lon="12.61919022" lat="43.12739944">
    <ele>571.213</ele>
    <time>1970-01-01T00:07:45.000Z</time>
   </trkpt>
   <trkpt lon="12.61929035" lat="43.12694931">
    <ele>574.319</ele>
    <time>1970-01-01T00:07:46.000Z</time>
   </trkpt>
   <trkpt lon="12.61952972" lat="43.12620926">
    <ele>582.5</ele>
    <time>1970-01-01T00:07:47.000Z</time>
   </trkpt>
   <trkpt lon="12.61958981" lat="43.12570190">
    <ele>588.991</ele>
    <time>1970-01-01T00:07:48.000Z</time>
   </trkpt>
   <trkpt lon="12.61942959" lat="43.12570953">
    <ele>592.903</ele>
    <time>1970-01-01T00:07:49.000Z</time>
   </trkpt>
   <trkpt lon="12.61894035" lat="43.12649155">
    <ele>590.163</ele>
    <time>1970-01-01T00:07:50.000Z</time>
   </trkpt>
   <trkpt lon="12.61870003" lat="43.12683868">
    <ele>588.944</ele>
    <time>1970-01-01T00:07:51.000Z</time>
   </trkpt>
   <trkpt lon="12.61853981" lat="43.12681961">
    <ele>592.437</ele>
    <time>1970-01-01T00:07:52.000Z</time>
   </trkpt>
   <trkpt lon="12.61841965" lat="43.12662888">
    <ele>596.936</ele>
    <time>1970-01-01T00:07:53.000Z</time>
   </trkpt>
   <trkpt lon="12.61804008" lat="43.12623978">
    <ele>599.158</ele>
    <time>1970-01-01T00:07:54.000Z</time>
   </trkpt>
   <trkpt lon="12.61791039" lat="43.12583160">
    <ele>595.568</ele>
    <time>1970-01-01T00:07:55.000Z</time>
   </trkpt>
   <trkpt lon="12.61791992" lat="43.12541962">
    <ele>597.39</ele>
    <time>1970-01-01T00:07:56.000Z</time>
   </trkpt>
   <trkpt lon="12.61779022" lat="43.12496185">
    <ele>598.062</ele>
    <time>1970-01-01T00:07:57.000Z</time>
   </trkpt>
   <trkpt lon="12.61754036" lat="43.12474060">
    <ele>591.776</ele>
    <time>1970-01-01T00:07:58.000Z</time>
   </trkpt>
   <trkpt lon="12.61738968" lat="43.12456131">
    <ele>588.263</ele>
    <time>1970-01-01T00:07:59.000Z</time>
   </trkpt>
   <trkpt lon="12.61728001" lat="43.12424850">
    <ele>587.349</ele>
    <time>1970-01-01T00:08:00.000Z</time>
   </trkpt>
   <trkpt lon="12.61701965" lat="43.12379837">
    <ele>581.123</ele>
    <time>1970-01-01T00:08:01.000Z</time>
   </trkpt>
   <trkpt lon="12.61695957" lat="43.12350845">
    <ele>580.601</ele>
    <time>1970-01-01T00:08:02.000Z</time>
   </trkpt>
   <trkpt lon="12.61676979" lat="43.12324905">
    <ele>575.81</ele>
    <time>1970-01-01T00:08:03.000Z</time>
   </trkpt>
   <trkpt lon="12.61658955" lat="43.12263870">
    <ele>568.831</ele>
    <time>1970-01-01T00:08:04.000Z</time>
   </trkpt>
   <trkpt lon="12.61645985" lat="43.12245178">
    <ele>565.503</ele>
    <time>1970-01-01T00:08:05.000Z</time>
   </trkpt>
   <trkpt lon="12.61645985" lat="43.12229156">
    <ele>565.037</ele>
    <time>1970-01-01T00:08:06.000Z</time>
   </trkpt>
  </trkseg>
 </trk>
 <trk>
  <name>Variante 2</name>
  <extensions>
   <gpxx:TrackExtension>
    <gpxx:DisplayColor>DarkBlue</gpxx:DisplayColor>
   </gpxx:TrackExtension>
   <ql:key>1366986382Variante 25</ql:key>
  </extensions>
  <trkseg>
   <trkpt lon="12.61240005" lat="43.07983017">
    <ele>274.288</ele>
    <time>1970-01-01T00:08:07.000Z</time>
   </trkpt>
   <trkpt lon="12.61275959" lat="43.07975006">
    <ele>285.139</ele>
    <time>1970-01-01T00:08:08.000Z</time>
   </trkpt>
   <trkpt lon="12.61314011" lat="43.07973099">
    <ele>298.854</ele>
    <time>1970-01-01T00:08:09.000Z</time>
   </trkpt>
   <trkpt lon="12.61324978" lat="43.07975006">
    <ele>302.164</ele>
    <time>1970-01-01T00:08:10.000Z</time>
   </trkpt>
   <trkpt lon="12.61355972" lat="43.07984161">
    <ele>309.982</ele>
    <time>1970-01-01T00:08:11.000Z</time>
   </trkpt>
   <trkpt lon="12.61394024" lat="43.08010864">
    <ele>314.991</ele>
    <time>1970-01-01T00:08:12.000Z</time>
   </trkpt>
   <trkpt lon="12.61415005" lat="43.08026886">
    <ele>317.868</ele>
    <time>1970-01-01T00:08:13.000Z</time>
   </trkpt>
   <trkpt lon="12.61441040" lat="43.08045959">
    <ele>321.216</ele>
    <time>1970-01-01T00:08:14.000Z</time>
   </trkpt>
   <trkpt lon="12.61452961" lat="43.08042908">
    <ele>326.186</ele>
    <time>1970-01-01T00:08:15.000Z</time>
   </trkpt>
  </trkseg>
 </trk>
 <extensions/>
</gpx>
